createdAt,value
2023-05-06T00:00:20.015Z,99.90
2023-05-06T00:02:47.335Z,99.90
2023-05-06T00:05:15.038Z,99.90
2023-05-06T00:07:42.090Z,99.90
2023-05-06T00:10:09.740Z,99.90
2023-05-06T00:12:36.802Z,99.90
2023-05-06T00:15:04.934Z,99.90
2023-05-06T00:17:32.122Z,99.90
2023-05-06T00:19:59.257Z,99.90
2023-05-06T00:22:26.436Z,99.90
2023-05-06T00:24:53.510Z,99.90
2023-05-06T00:27:20.644Z,99.90
2023-05-06T00:29:47.684Z,99.90
2023-05-06T00:32:15.278Z,99.90
2023-05-06T00:34:42.776Z,99.90
2023-05-06T00:37:10.031Z,99.90
2023-05-06T00:39:37.260Z,99.90
2023-05-06T00:42:04.520Z,99.90
2023-05-06T00:44:34.366Z,99.90
2023-05-06T00:47:02.126Z,99.90
2023-05-06T00:49:30.798Z,99.90
2023-05-06T00:51:59.182Z,99.90
2023-05-06T00:54:27.017Z,99.90
2023-05-06T00:56:54.227Z,99.90
2023-05-06T00:59:22.710Z,99.90
2023-05-06T01:01:52.299Z,99.90
2023-05-06T01:04:19.889Z,99.90
2023-05-06T01:07:28.856Z,99.90
2023-05-06T01:10:35.752Z,99.90
2023-05-06T01:13:30.853Z,99.90
2023-05-06T01:15:59.836Z,99.90
2023-05-06T01:18:28.440Z,99.90
2023-05-06T01:20:56.798Z,99.90
2023-05-06T01:23:23.890Z,99.90
2023-05-06T01:25:51.264Z,99.90
2023-05-06T01:28:18.428Z,99.90
2023-05-06T01:31:12.953Z,99.90
2023-05-06T01:34:22.364Z,99.90
2023-05-06T01:37:22.440Z,99.90
2023-05-06T01:39:51.546Z,99.90
2023-05-06T01:42:19.610Z,99.90
2023-05-06T01:44:48.992Z,99.90
2023-05-06T01:47:17.632Z,99.90
2023-05-06T01:49:44.970Z,99.90
2023-05-06T01:52:11.992Z,99.90
2023-05-06T01:54:39.100Z,99.90
2023-05-06T01:57:06.132Z,99.90
2023-05-06T01:59:33.392Z,99.90
2023-05-06T02:02:00.931Z,99.90
2023-05-06T02:04:28.014Z,99.90
2023-05-06T02:06:55.080Z,99.90
2023-05-06T02:09:22.328Z,99.90
2023-05-06T02:11:55.555Z,99.90
2023-05-06T02:14:23.944Z,99.90
2023-05-06T02:16:52.644Z,99.90
2023-05-06T02:19:21.096Z,99.90
2023-05-06T02:21:48.211Z,99.90
2023-05-06T02:24:15.306Z,99.90
2023-05-06T02:26:42.398Z,99.90
2023-05-06T02:29:09.656Z,99.90
2023-05-06T02:31:36.751Z,99.90
2023-05-06T02:34:03.939Z,99.90
2023-05-06T02:36:31.025Z,99.90
2023-05-06T02:38:58.211Z,99.90
2023-05-06T02:41:25.271Z,99.90
2023-05-06T02:43:52.560Z,99.90
2023-05-06T02:46:19.697Z,99.90
2023-05-06T02:48:46.863Z,99.90
2023-05-06T02:51:14.060Z,99.90
2023-05-06T02:53:41.269Z,99.90
2023-05-06T02:56:08.402Z,99.90
2023-05-06T02:58:35.602Z,99.90
2023-05-06T03:01:02.799Z,99.90
2023-05-06T03:03:29.928Z,99.90
2023-05-06T03:05:56.983Z,99.90
2023-05-06T03:08:24.368Z,99.90
2023-05-06T03:10:52.472Z,99.90
2023-05-06T03:13:20.748Z,99.90
2023-05-06T03:15:54.513Z,99.90
2023-05-06T03:18:22.324Z,99.90
2023-05-06T03:20:50.233Z,99.90
2023-05-06T03:23:18.256Z,99.90
2023-05-06T03:25:46.303Z,99.90
2023-05-06T03:28:14.066Z,99.90
2023-05-06T03:30:43.179Z,99.90
2023-05-06T03:33:10.938Z,99.90
2023-05-06T03:35:38.116Z,99.90
2023-05-06T03:38:05.194Z,99.90
2023-05-06T03:40:55.091Z,99.90
2023-05-06T03:43:22.574Z,99.90
2023-05-06T03:45:53.557Z,99.90
2023-05-06T03:48:21.100Z,99.90
2023-05-06T03:50:49.727Z,99.90
2023-05-06T03:53:18.121Z,99.90
2023-05-06T03:55:50.959Z,99.90
2023-05-06T03:58:18.213Z,99.90
2023-05-06T04:00:46.531Z,99.90
2023-05-06T04:03:13.816Z,99.90
2023-05-06T04:05:51.672Z,99.90
2023-05-06T04:08:23.109Z,99.90
2023-05-06T04:10:50.288Z,99.90
2023-05-06T04:13:26.351Z,99.90
2023-05-06T04:15:54.313Z,99.90
2023-05-06T04:18:26.478Z,99.90
2023-05-06T04:21:01.049Z,99.90
2023-05-06T04:23:30.720Z,99.90
2023-05-06T04:25:59.380Z,99.90
2023-05-06T04:28:28.067Z,99.90
2023-05-06T04:30:55.203Z,99.90
2023-05-06T04:33:25.749Z,99.90
2023-05-06T04:35:54.472Z,99.90
2023-05-06T04:38:22.779Z,99.90
2023-05-06T04:40:50.296Z,99.90
2023-05-06T04:43:18.327Z,99.90
2023-05-06T04:45:50.860Z,99.90
2023-05-06T04:48:22.984Z,99.90
2023-05-06T04:50:52.295Z,99.90
2023-05-06T04:53:19.476Z,99.90
2023-05-06T04:55:46.901Z,99.90
2023-05-06T04:58:14.576Z,99.90
2023-05-06T05:00:42.170Z,99.90
2023-05-06T05:03:10.087Z,99.90
2023-05-06T05:05:37.658Z,99.90
2023-05-06T05:08:13.347Z,99.90
2023-05-06T05:10:43.867Z,99.90
2023-05-06T05:13:14.473Z,99.90
2023-05-06T05:15:42.755Z,99.90
2023-05-06T05:18:10.351Z,99.90
2023-05-06T05:20:37.678Z,99.90
2023-05-06T05:23:06.179Z,99.90
2023-05-06T05:25:33.546Z,99.90
2023-05-06T05:28:00.626Z,99.90
2023-05-06T05:30:29.069Z,99.90
2023-05-06T05:32:56.320Z,99.90
2023-05-06T05:35:23.659Z,99.90
2023-05-06T05:37:53.053Z,99.90
2023-05-06T05:40:20.496Z,99.90
2023-05-06T05:42:51.418Z,99.90
2023-05-06T05:45:25.825Z,99.90
2023-05-06T05:47:54.296Z,99.90
2023-05-06T05:50:22.844Z,99.90
2023-05-06T05:52:51.777Z,99.90
2023-05-06T05:55:21.380Z,99.90
2023-05-06T05:57:49.786Z,99.90
2023-05-06T06:00:18.867Z,99.90
2023-05-06T06:02:46.109Z,99.90
2023-05-06T06:05:17.782Z,99.90
2023-05-06T06:07:45.432Z,99.90
2023-05-06T06:10:15.558Z,99.90
2023-05-06T06:12:44.800Z,99.90
2023-05-06T06:15:15.610Z,99.90
2023-05-06T06:17:44.679Z,99.90
2023-05-06T06:20:13.236Z,99.90
2023-05-06T06:22:41.026Z,99.90
2023-05-06T06:25:08.863Z,99.90
2023-05-06T06:27:39.318Z,99.90
2023-05-06T06:30:08.441Z,99.90
2023-05-06T06:32:35.693Z,99.90
2023-05-06T06:35:02.761Z,99.90
2023-05-06T06:37:29.855Z,99.90
2023-05-06T06:39:56.900Z,99.90
2023-05-06T06:42:24.066Z,99.90
2023-05-06T06:45:10.222Z,99.90
2023-05-06T06:47:37.666Z,99.90
2023-05-06T06:50:05.854Z,99.90
2023-05-06T06:52:33.144Z,99.90
2023-05-06T06:55:01.019Z,99.90
2023-05-06T06:57:28.220Z,99.90
2023-05-06T06:59:55.872Z,99.90
2023-05-06T07:02:23.430Z,99.90
2023-05-06T07:04:50.565Z,99.90
2023-05-06T07:07:17.857Z,99.90
2023-05-06T07:09:44.906Z,99.90
2023-05-06T07:12:12.328Z,99.90
2023-05-06T07:14:39.566Z,99.90
2023-05-06T07:17:06.957Z,99.90
2023-05-06T07:19:33.997Z,99.90
2023-05-06T07:22:03.041Z,99.90
2023-05-06T07:24:30.106Z,99.90
2023-05-06T07:26:57.827Z,99.90
2023-05-06T07:29:25.112Z,99.90
2023-05-06T07:31:52.300Z,99.90
2023-05-06T07:34:19.879Z,99.90
2023-05-06T07:36:46.994Z,99.90
2023-05-06T07:39:14.257Z,99.90
2023-05-06T07:41:41.418Z,99.90
2023-05-06T07:44:08.529Z,99.90
2023-05-06T07:46:35.825Z,99.90
2023-05-06T07:49:03.081Z,99.90
2023-05-06T07:51:30.179Z,99.90
2023-05-06T07:53:57.323Z,99.90
2023-05-06T07:56:24.435Z,99.90
2023-05-06T07:58:51.734Z,99.90
2023-05-06T08:01:18.792Z,99.90
2023-05-06T08:03:46.048Z,99.90
2023-05-06T08:06:13.209Z,99.90
2023-05-06T08:08:40.327Z,99.90
2023-05-06T08:11:07.383Z,99.90
2023-05-06T08:13:34.822Z,99.90
2023-05-06T08:16:02.611Z,99.90
2023-05-06T08:18:30.323Z,99.90
2023-05-06T08:20:57.439Z,99.90
2023-05-06T08:23:24.673Z,99.90
2023-05-06T08:25:52.024Z,99.90
2023-05-06T08:28:19.645Z,99.90
2023-05-06T08:30:48.578Z,99.90
2023-05-06T08:33:15.732Z,99.90
2023-05-06T08:35:42.849Z,99.90
2023-05-06T08:38:09.926Z,99.90
2023-05-06T08:40:44.458Z,99.90
2023-05-06T08:43:14.824Z,99.90
2023-05-06T08:45:42.627Z,99.90
2023-05-06T08:48:09.985Z,99.90
2023-05-06T08:50:42.348Z,99.90
2023-05-06T08:53:13.614Z,99.90
2023-05-06T08:55:44.324Z,99.90
2023-05-06T08:58:14.449Z,99.90
2023-05-06T09:00:42.474Z,99.90
2023-05-06T09:03:09.686Z,99.90
2023-05-06T09:05:36.917Z,99.90
2023-05-06T09:08:04.109Z,99.90
2023-05-06T09:10:45.238Z,99.90
2023-05-06T09:13:17.154Z,99.90
2023-05-06T09:15:49.275Z,99.90
2023-05-06T09:18:17.158Z,99.90
2023-05-06T09:20:47.714Z,99.90
2023-05-06T09:23:17.829Z,99.90
2023-05-06T09:25:47.206Z,99.90
2023-05-06T09:28:15.104Z,99.90
2023-05-06T09:30:43.835Z,99.90
2023-05-06T09:33:11.912Z,99.90
2023-05-06T09:35:43.454Z,99.90
2023-05-06T09:38:11.114Z,99.10
2023-05-06T09:40:38.966Z,99.90
2023-05-06T09:43:06.734Z,99.90
2023-05-06T09:45:34.037Z,98.10
2023-05-06T09:48:01.455Z,99.90
2023-05-06T09:50:28.770Z,99.90
2023-05-06T09:52:56.917Z,99.90
2023-05-06T09:55:27.011Z,99.90
2023-05-06T09:57:55.566Z,98.50
2023-05-06T10:00:28.321Z,97.30
2023-05-06T10:02:56.303Z,97.50
2023-05-06T10:05:26.460Z,97.90
2023-05-06T10:07:56.550Z,90.20
2023-05-06T10:10:25.982Z,91.50
2023-05-06T10:12:53.690Z,85.90
2023-05-06T10:15:20.995Z,84.20
2023-05-06T10:17:52.819Z,90.20
2023-05-06T10:20:23.550Z,87.70
2023-05-06T10:23:28.041Z,87.30
2023-05-06T10:25:57.866Z,90.80
2023-05-06T10:28:29.278Z,90.30
2023-05-06T10:30:59.527Z,90.70
2023-05-06T10:33:27.699Z,91.00
2023-05-06T10:36:33.575Z,91.50
2023-05-06T10:39:03.389Z,91.90
2023-05-06T10:41:31.229Z,89.90
2023-05-06T10:43:59.461Z,92.50
2023-05-06T10:46:29.886Z,92.20
2023-05-06T10:49:27.120Z,90.80
2023-05-06T10:52:17.508Z,92.40
2023-05-06T10:54:52.540Z,91.40
2023-05-06T10:57:25.744Z,91.10
2023-05-06T10:59:54.944Z,91.00
2023-05-06T11:02:24.194Z,90.10
2023-05-06T11:04:53.309Z,91.50
2023-05-06T11:07:24.201Z,89.50
2023-05-06T11:10:06.195Z,87.80
2023-05-06T11:12:53.685Z,89.30
2023-05-06T11:15:40.575Z,85.00
2023-05-06T11:18:46.218Z,89.00
2023-05-06T11:21:36.971Z,87.80
2023-05-06T11:24:06.997Z,86.20
2023-05-06T11:26:34.656Z,85.60
2023-05-06T11:29:04.144Z,86.00
2023-05-06T11:31:39.473Z,87.10
2023-05-06T11:34:18.669Z,79.50
2023-05-06T11:36:47.937Z,79.20
2023-05-06T11:39:15.807Z,76.20
2023-05-06T11:41:42.877Z,78.30
2023-05-06T11:44:12.194Z,70.30
2023-05-06T11:46:39.456Z,71.70
2023-05-06T11:49:06.637Z,57.80
2023-05-06T11:51:33.770Z,63.10
2023-05-06T11:54:11.031Z,62.00
2023-05-06T11:56:50.171Z,62.10
2023-05-06T11:59:18.837Z,55.60
2023-05-06T12:01:46.600Z,58.10
2023-05-06T12:04:14.023Z,59.30
2023-05-06T12:06:41.245Z,57.50
2023-05-06T12:09:12.304Z,56.00
2023-05-06T12:11:42.077Z,59.30
2023-05-06T12:14:11.336Z,59.30
2023-05-06T12:16:39.005Z,50.80
2023-05-06T12:19:06.492Z,54.00
2023-05-06T12:21:37.696Z,52.60
2023-05-06T12:24:05.508Z,44.10
2023-05-06T12:26:49.550Z,55.50
2023-05-06T12:29:17.566Z,53.40
2023-05-06T12:31:48.344Z,52.10
2023-05-06T12:34:17.956Z,55.10
2023-05-06T12:36:46.921Z,47.10
2023-05-06T12:39:14.488Z,46.50
2023-05-06T12:41:45.955Z,49.10
2023-05-06T12:44:36.549Z,48.20
2023-05-06T12:47:07.544Z,46.40
2023-05-06T12:49:54.419Z,46.80
2023-05-06T12:52:23.918Z,48.40
2023-05-06T12:54:52.999Z,58.30
2023-05-06T12:57:21.019Z,54.60
2023-05-06T12:59:49.483Z,56.80
2023-05-06T13:02:16.880Z,46.50
2023-05-06T13:04:45.367Z,56.60
2023-05-06T13:07:12.681Z,60.90
2023-05-06T13:09:39.808Z,62.40
2023-05-06T13:12:07.491Z,58.30
2023-05-06T13:14:35.530Z,45.10
2023-05-06T13:17:06.793Z,46.40
2023-05-06T13:19:34.362Z,44.60
2023-05-06T13:22:02.129Z,42.80
2023-05-06T13:24:29.797Z,47.00
2023-05-06T13:26:57.598Z,50.60
2023-05-06T13:29:25.007Z,52.30
2023-05-06T13:31:52.146Z,62.00
2023-05-06T13:34:19.523Z,56.70
2023-05-06T13:36:49.252Z,54.90
2023-05-06T13:39:16.496Z,55.80
2023-05-06T13:41:46.761Z,54.80
2023-05-06T13:44:14.137Z,58.00
2023-05-06T13:46:42.488Z,55.70
2023-05-06T13:49:10.771Z,57.90
2023-05-06T13:51:37.890Z,56.50
2023-05-06T13:54:06.041Z,57.70
2023-05-06T13:56:48.709Z,58.70
2023-05-06T13:59:16.039Z,63.00
2023-05-06T14:01:43.594Z,60.80
2023-05-06T14:04:10.910Z,58.10
2023-05-06T14:06:38.890Z,61.00
2023-05-06T14:09:05.946Z,57.60
2023-05-06T14:11:33.028Z,56.50
2023-05-06T14:14:00.467Z,58.00
2023-05-06T14:16:27.567Z,58.10
2023-05-06T14:18:54.736Z,62.30
2023-05-06T14:21:22.154Z,61.30
2023-05-06T14:23:49.286Z,59.00
2023-05-06T14:26:16.367Z,58.90
2023-05-06T14:28:43.583Z,59.30
2023-05-06T14:31:10.868Z,49.30
2023-05-06T14:33:38.974Z,49.50
2023-05-06T14:36:06.511Z,53.90
2023-05-06T14:38:33.915Z,66.10
2023-05-06T14:41:01.182Z,56.80
2023-05-06T14:43:28.294Z,57.10
2023-05-06T14:45:55.343Z,52.00
2023-05-06T14:48:22.658Z,57.80
2023-05-06T14:50:49.701Z,56.40
2023-05-06T14:53:16.948Z,60.60
2023-05-06T14:55:45.327Z,41.30
2023-05-06T14:58:12.641Z,44.20
2023-05-06T15:00:39.694Z,43.30
2023-05-06T15:03:07.213Z,43.20
2023-05-06T15:05:37.143Z,44.90
2023-05-06T15:08:04.356Z,48.50
2023-05-06T15:10:31.480Z,53.20
2023-05-06T15:12:58.659Z,49.70
2023-05-06T15:15:25.815Z,46.10
2023-05-06T15:17:53.124Z,43.40
2023-05-06T15:20:20.280Z,47.40
2023-05-06T15:22:47.384Z,44.80
2023-05-06T15:25:26.204Z,47.90
2023-05-06T15:28:01.111Z,46.50
2023-05-06T15:30:28.185Z,44.80
2023-05-06T15:32:55.417Z,46.50
2023-05-06T15:35:22.789Z,45.30
2023-05-06T15:37:51.357Z,44.20
2023-05-06T15:40:18.507Z,53.30
2023-05-06T15:42:45.668Z,55.00
2023-05-06T15:45:13.155Z,53.10
2023-05-06T15:47:40.369Z,52.70
2023-05-06T15:52:37.991Z,56.10
2023-05-06T15:55:05.767Z,55.60
2023-05-06T15:57:32.853Z,55.90
2023-05-06T16:00:00.037Z,55.20
2023-05-06T16:02:27.860Z,43.90
2023-05-06T16:04:55.139Z,47.00
2023-05-06T16:07:22.492Z,46.10
2023-05-06T16:09:50.596Z,52.10
2023-05-06T16:12:17.691Z,51.50
2023-05-06T16:14:44.796Z,52.60
2023-05-06T16:17:11.907Z,60.20
2023-05-06T16:19:39.029Z,75.10
2023-05-06T16:22:06.148Z,56.00
2023-05-06T16:24:33.215Z,47.70
2023-05-06T16:27:01.186Z,52.00
2023-05-06T16:29:28.285Z,47.10
2023-05-06T16:31:55.760Z,46.80
2023-05-06T16:34:22.832Z,47.50
2023-05-06T16:36:50.618Z,46.10
2023-05-06T16:39:17.700Z,47.90
2023-05-06T16:41:44.767Z,49.00
2023-05-06T16:44:11.786Z,47.80
2023-05-06T16:46:39.233Z,50.00
2023-05-06T16:49:06.459Z,51.80
2023-05-06T16:51:33.603Z,50.20
2023-05-06T16:54:00.721Z,49.80
2023-05-06T16:56:36.733Z,52.40
2023-05-06T16:59:07.685Z,50.40
2023-05-06T17:01:34.712Z,51.40
2023-05-06T17:04:01.805Z,50.80
2023-05-06T17:06:31.500Z,54.00
2023-05-06T17:08:59.140Z,53.40
2023-05-06T17:11:26.243Z,52.30
2023-05-06T17:13:54.563Z,52.90
2023-05-06T17:16:21.823Z,54.00
2023-05-06T17:18:48.944Z,54.70
2023-05-06T17:21:16.328Z,55.00
2023-05-06T17:23:44.297Z,56.80
2023-05-06T17:26:11.362Z,56.40
2023-05-06T17:28:38.724Z,56.80
2023-05-06T17:31:05.853Z,56.50
2023-05-06T17:33:32.972Z,57.20
2023-05-06T17:36:00.119Z,56.80
2023-05-06T17:38:27.240Z,56.80
2023-05-06T17:40:54.370Z,56.80
2023-05-06T17:43:21.650Z,57.90
2023-05-06T17:45:48.939Z,57.80
2023-05-06T17:48:16.102Z,58.90
2023-05-06T17:50:43.166Z,59.30
2023-05-06T17:53:10.234Z,60.40
2023-05-06T17:55:37.333Z,60.60
2023-05-06T17:58:04.558Z,60.20
2023-05-06T18:00:31.645Z,61.40
2023-05-06T18:02:59.756Z,63.70
2023-05-06T18:05:27.887Z,63.00
2023-05-06T18:07:55.007Z,64.80
2023-05-06T18:10:22.064Z,66.30
2023-05-06T18:12:49.348Z,67.30
2023-05-06T18:15:16.469Z,68.00
2023-05-06T18:17:43.764Z,69.10
2023-05-06T18:20:11.730Z,71.50
2023-05-06T18:22:39.761Z,71.10
2023-05-06T18:25:07.864Z,73.90
2023-05-06T18:27:35.569Z,75.10
2023-05-06T18:30:03.693Z,73.70
2023-05-06T18:32:31.740Z,75.30
2023-05-06T18:34:58.870Z,76.40
2023-05-06T18:37:28.487Z,78.90
2023-05-06T18:39:55.716Z,79.80
2023-05-06T18:42:23.264Z,82.30
2023-05-06T18:44:50.486Z,82.70
2023-05-06T18:47:19.354Z,83.30
2023-05-06T18:49:46.397Z,82.80
2023-05-06T18:52:15.074Z,84.50
2023-05-06T18:54:42.126Z,83.30
2023-05-06T18:57:09.404Z,84.80
2023-05-06T18:59:36.612Z,86.10
2023-05-06T19:02:04.185Z,89.60
2023-05-06T19:04:33.719Z,90.50
2023-05-06T19:07:01.242Z,90.90
2023-05-06T19:09:28.331Z,91.20
2023-05-06T19:11:55.925Z,90.80
2023-05-06T19:14:23.653Z,91.50
2023-05-06T19:16:52.616Z,92.20
2023-05-06T19:19:19.846Z,92.70
2023-05-06T19:21:47.073Z,93.10
2023-05-06T19:24:14.159Z,93.20
2023-05-06T19:26:41.390Z,93.10
2023-05-06T19:29:08.574Z,94.10
2023-05-06T19:31:35.883Z,93.70
2023-05-06T19:34:03.011Z,94.20
2023-05-06T19:36:30.149Z,94.00
2023-05-06T19:38:57.218Z,95.30
2023-05-06T19:41:24.434Z,96.80
2023-05-06T19:43:51.564Z,99.90
2023-05-06T19:46:18.832Z,99.90
2023-05-06T19:48:46.599Z,99.90
2023-05-06T19:51:13.902Z,99.90
2023-05-06T19:53:41.001Z,99.90
2023-05-06T19:56:09.492Z,99.90
2023-05-06T19:58:36.641Z,99.90
2023-05-06T20:01:03.779Z,99.90
2023-05-06T20:03:32.572Z,99.90
2023-05-06T20:05:59.711Z,99.90
2023-05-06T20:08:27.016Z,99.90
2023-05-06T20:10:54.335Z,99.90
2023-05-06T20:13:21.508Z,99.90
2023-05-06T20:15:49.221Z,99.90
2023-05-06T20:18:16.426Z,99.90
2023-05-06T20:20:43.561Z,99.90
2023-05-06T20:23:10.707Z,99.90
2023-05-06T20:25:38.025Z,99.90
2023-05-06T20:28:07.005Z,99.90
2023-05-06T20:30:34.777Z,99.90
2023-05-06T20:33:02.135Z,99.90
2023-05-06T20:35:29.484Z,99.90
2023-05-06T20:37:56.580Z,99.90
2023-05-06T20:40:23.761Z,99.90
2023-05-06T20:42:50.917Z,99.90
2023-05-06T20:45:18.211Z,99.90
2023-05-06T20:47:45.485Z,99.90
2023-05-06T20:50:17.195Z,99.90
2023-05-06T20:52:46.135Z,99.90
2023-05-06T20:55:14.782Z,99.90
2023-05-06T20:57:45.130Z,99.90
2023-05-06T21:00:13.061Z,99.90
2023-05-06T21:02:41.977Z,99.90
2023-05-06T21:05:09.918Z,99.90
2023-05-06T21:07:37.201Z,99.90
2023-05-06T21:10:06.023Z,99.90
2023-05-06T21:12:33.667Z,99.90
2023-05-06T21:15:01.198Z,99.90
2023-05-06T21:17:29.134Z,99.90
2023-05-06T21:19:56.422Z,99.90
2023-05-06T21:22:24.496Z,99.90
2023-05-06T21:24:52.182Z,99.90
2023-05-06T21:27:19.302Z,99.90
2023-05-06T21:29:46.730Z,99.90
2023-05-06T21:32:14.120Z,99.90
2023-05-06T21:34:41.282Z,99.90
2023-05-06T21:37:08.461Z,99.90
2023-05-06T21:39:35.926Z,99.90
2023-05-06T21:42:03.031Z,99.90
2023-05-06T21:44:30.593Z,99.90
2023-05-06T21:46:57.770Z,99.90
2023-05-06T21:49:24.834Z,99.90
2023-05-06T21:51:51.871Z,99.90
2023-05-06T21:54:19.015Z,99.90
2023-05-06T21:56:49.657Z,99.90
2023-05-06T21:59:16.912Z,99.90
2023-05-06T22:01:44.024Z,99.90
2023-05-06T22:04:13.118Z,99.90
2023-05-06T22:06:40.600Z,99.90
2023-05-06T22:09:10.666Z,99.90
2023-05-06T22:11:38.516Z,99.90
2023-05-06T22:14:06.915Z,99.90
2023-05-06T22:16:35.708Z,99.90
2023-05-06T22:19:04.654Z,99.90
2023-05-06T22:21:33.308Z,99.90
2023-05-06T22:24:00.720Z,99.90
2023-05-06T22:26:28.355Z,99.90
2023-05-06T22:28:58.729Z,99.90
2023-05-06T22:31:26.073Z,99.90
2023-05-06T22:33:57.615Z,99.90
2023-05-06T22:36:29.322Z,99.90
2023-05-06T22:38:56.945Z,99.90
2023-05-06T22:41:24.104Z,99.90
2023-05-06T22:43:51.242Z,99.90
2023-05-06T22:46:18.565Z,99.90
2023-05-06T22:48:46.553Z,99.90
2023-05-06T22:51:16.151Z,99.90
2023-05-06T22:53:43.473Z,99.90
2023-05-06T22:56:10.634Z,99.90
2023-05-06T22:58:37.806Z,99.90
2023-05-06T23:01:05.277Z,99.90
2023-05-06T23:03:32.442Z,99.90
2023-05-06T23:05:59.567Z,99.90
2023-05-06T23:08:26.841Z,99.90
2023-05-06T23:10:53.980Z,99.90
2023-05-06T23:13:21.350Z,99.90
2023-05-06T23:15:48.610Z,99.90
2023-05-06T23:18:15.736Z,99.90
2023-05-06T23:20:42.943Z,99.90
2023-05-06T23:23:10.824Z,99.90
2023-05-06T23:25:38.270Z,99.90
2023-05-06T23:28:05.633Z,99.90
2023-05-06T23:30:32.776Z,99.90
2023-05-06T23:32:59.928Z,99.90
2023-05-06T23:35:27.068Z,99.90
2023-05-06T23:37:54.102Z,99.90
2023-05-06T23:40:21.440Z,99.90
2023-05-06T23:42:48.485Z,99.90
2023-05-06T23:45:15.721Z,99.90
2023-05-06T23:47:42.764Z,99.90
2023-05-06T23:50:10.638Z,99.90
2023-05-06T23:52:38.350Z,99.90
2023-05-06T23:55:06.226Z,99.90
2023-05-06T23:57:33.723Z,99.90
